createdAt,value
2022-08-03T00:01:08.232Z,29.25
2022-08-03T00:06:15.618Z,31.17
2022-08-03T00:11:21.707Z,31.05
2022-08-03T00:16:28.578Z,22.13
2022-08-03T00:21:34.971Z,18.63
2022-08-03T00:26:41.421Z,18.13
2022-08-03T00:31:59.238Z,20.70
2022-08-03T00:37:05.971Z,20.27
2022-08-03T00:42:12.338Z,20.52
2022-08-03T00:47:18.635Z,16.58
2022-08-03T00:52:25.173Z,20.45
2022-08-03T00:57:34.573Z,20.25
2022-08-03T01:02:44.148Z,23.90
2022-08-03T01:08:08.773Z,12.88
2022-08-03T01:14:01.715Z,16.42
2022-08-03T01:19:26.900Z,11.27
2022-08-03T01:24:40.922Z,9.38
2022-08-03T01:30:06.744Z,10.68
2022-08-03T01:35:24.557Z,9.63
2022-08-03T01:40:32.628Z,10.90
2022-08-03T01:45:40.684Z,9.13
2022-08-03T01:50:49.765Z,13.65
2022-08-03T01:55:59.482Z,11.15
2022-08-03T02:01:08.433Z,7.97
2022-08-03T02:07:00.259Z,11.93
2022-08-03T02:11:42.942Z,8.60
2022-08-03T02:16:51.419Z,9.35
2022-08-03T02:22:01.057Z,8.95
2022-08-03T02:27:15.561Z,9.50
2022-08-03T02:32:38.389Z,6.78
2022-08-03T02:37:54.902Z,10.20
2022-08-03T02:43:10.519Z,11.05
2022-08-03T02:53:28.640Z,8.15
2022-08-03T02:58:36.118Z,9.43
2022-08-03T03:03:44.755Z,9.23
2022-08-03T03:08:51.347Z,8.27
2022-08-03T03:14:00.519Z,8.05
2022-08-03T03:19:06.865Z,10.38
2022-08-03T03:24:14.221Z,4.35
2022-08-03T03:29:20.312Z,9.13
2022-08-03T03:34:27.060Z,6.57
2022-08-03T03:39:35.215Z,8.50
2022-08-03T03:44:41.616Z,8.38
2022-08-03T03:49:48.325Z,8.82
2022-08-03T03:55:00.816Z,15.20
2022-08-03T04:00:09.045Z,8.85
2022-08-03T04:05:34.974Z,12.07
2022-08-03T04:11:02.408Z,9.32
2022-08-03T04:16:12.785Z,8.55
2022-08-03T04:21:21.987Z,8.15
2022-08-03T04:26:32.685Z,10.75
2022-08-03T04:31:40.964Z,9.20
2022-08-03T04:36:54.732Z,12.00
2022-08-03T04:42:09.224Z,12.32
2022-08-03T04:47:16.275Z,11.40
2022-08-03T04:52:22.819Z,8.90
2022-08-03T04:57:28.997Z,13.07
2022-08-03T05:02:36.808Z,16.42
2022-08-03T05:07:43.357Z,15.75
2022-08-03T05:12:53.384Z,14.30
2022-08-03T05:18:00.190Z,17.33
2022-08-03T05:23:06.266Z,14.98
2022-08-03T05:28:12.190Z,14.13
2022-08-03T05:33:18.872Z,12.70
2022-08-03T05:38:28.706Z,14.27
2022-08-03T05:48:46.452Z,19.07
2022-08-03T05:53:52.798Z,15.57
2022-08-03T05:59:07.350Z,27.25
2022-08-03T06:04:26.424Z,21.65
2022-08-03T06:10:36.897Z,21.88
2022-08-03T06:14:58.926Z,20.27
2022-08-03T06:20:04.907Z,20.52
2022-08-03T06:25:13.013Z,23.70
2022-08-03T06:30:21.468Z,21.67
2022-08-03T06:35:29.638Z,19.73
2022-08-03T06:40:41.876Z,21.42
2022-08-03T06:45:48.427Z,19.40
2022-08-03T06:50:54.946Z,20.63
2022-08-03T06:56:02.226Z,17.88
2022-08-03T07:01:08.185Z,17.08
2022-08-03T07:06:15.494Z,20.38
2022-08-03T07:11:24.352Z,20.65
2022-08-03T07:16:30.933Z,17.42
2022-08-03T07:21:37.448Z,16.75
2022-08-03T07:26:43.712Z,17.88
2022-08-03T07:31:51.610Z,18.10
2022-08-03T07:36:57.926Z,16.70
2022-08-03T07:42:04.667Z,16.23
2022-08-03T07:47:11.206Z,17.27
2022-08-03T07:52:47.057Z,17.25
2022-08-03T07:58:11.595Z,14.13
2022-08-03T08:03:17.630Z,19.08
2022-08-03T08:08:24.211Z,16.38
2022-08-03T08:13:34.983Z,14.35
2022-08-03T08:18:41.207Z,16.50
2022-08-03T08:23:54.982Z,20.33
2022-08-03T08:29:03.900Z,20.08
2022-08-03T08:34:10.714Z,22.70
2022-08-03T08:39:17.505Z,17.95
2022-08-03T08:44:25.821Z,23.00
2022-08-03T08:49:34.965Z,18.70
2022-08-03T08:54:44.554Z,18.73
2022-08-03T08:59:52.509Z,18.63
2022-08-03T09:05:07.142Z,17.75
2022-08-03T09:10:15.971Z,18.60
2022-08-03T09:15:25.557Z,17.92
2022-08-03T09:20:35.484Z,18.80
2022-08-03T09:25:44.643Z,18.55
2022-08-03T09:31:01.989Z,18.52
2022-08-03T09:36:08.498Z,19.50
2022-08-03T09:41:21.679Z,23.75
2022-08-03T09:46:27.830Z,21.00
2022-08-03T09:52:33.708Z,21.75
2022-08-03T09:57:01.203Z,25.60
2022-08-03T10:02:07.710Z,23.17
2022-08-03T10:07:14.676Z,25.25
2022-08-03T10:12:21.800Z,22.70
2022-08-03T10:17:27.938Z,25.20
2022-08-03T10:22:38.964Z,20.05
2022-08-03T10:27:49.134Z,21.75
2022-08-03T10:33:50.630Z,30.17
2022-08-03T10:38:51.498Z,28.05
2022-08-03T10:44:19.285Z,27.25
2022-08-03T10:49:34.536Z,28.17
2022-08-03T10:55:09.898Z,23.67
2022-08-03T11:00:19.045Z,30.80
2022-08-03T11:05:36.706Z,28.52
2022-08-03T11:10:42.714Z,33.00
2022-08-03T11:15:51.149Z,32.97
2022-08-03T11:21:02.794Z,32.97
2022-08-03T11:26:14.410Z,32.95
2022-08-03T11:31:51.774Z,34.97
2022-08-03T11:37:34.177Z,35.60
2022-08-03T11:42:43.350Z,36.30
2022-08-03T11:47:51.958Z,39.20
2022-08-03T11:52:58.155Z,39.03
2022-08-03T11:59:16.471Z,47.22
2022-08-03T12:03:36.593Z,41.50
2022-08-03T12:08:45.251Z,46.20
2022-08-03T12:14:33.013Z,47.05
2022-08-03T12:19:19.464Z,55.30
2022-08-03T12:24:26.977Z,51.88
2022-08-03T12:29:33.427Z,44.38
2022-08-03T12:34:52.818Z,53.35
2022-08-03T12:40:10.260Z,41.97
2022-08-03T12:45:25.498Z,41.70
2022-08-03T12:50:34.309Z,41.20
2022-08-03T12:56:01.551Z,41.75
2022-08-03T13:01:10.844Z,37.38
2022-08-03T13:06:29.381Z,27.67
2022-08-03T13:11:55.671Z,37.05
2022-08-03T13:17:02.711Z,35.72
2022-08-03T13:22:26.858Z,40.92
2022-08-03T13:28:03.590Z,36.25
2022-08-03T13:33:01.865Z,41.72
2022-08-03T13:38:08.511Z,42.13
2022-08-03T13:43:14.735Z,36.00
2022-08-03T13:48:35.989Z,29.00
2022-08-03T13:53:44.888Z,25.17
2022-08-03T13:58:51.570Z,23.83
2022-08-03T14:03:58.464Z,15.45
2022-08-03T14:09:04.720Z,22.05
2022-08-03T14:14:10.898Z,13.75
2022-08-03T14:19:17.626Z,16.08
2022-08-03T14:24:32.079Z,19.10
2022-08-03T14:29:40.955Z,19.50
2022-08-03T14:34:47.196Z,14.32
2022-08-03T14:40:01.159Z,18.13
2022-08-03T14:45:09.502Z,17.02
2022-08-03T14:50:35.758Z,13.68
2022-08-03T14:55:54.488Z,14.68
2022-08-03T15:01:00.795Z,15.82
2022-08-03T15:06:07.098Z,14.63
2022-08-03T15:11:13.587Z,12.85
2022-08-03T15:16:26.604Z,13.68
2022-08-03T15:21:46.338Z,10.05
2022-08-03T15:26:54.910Z,13.10
2022-08-03T15:32:01.978Z,12.63
2022-08-03T15:37:23.116Z,10.27
2022-08-03T15:42:30.692Z,14.02
2022-08-03T15:47:36.893Z,11.73
2022-08-03T15:52:43.345Z,11.63
2022-08-03T15:59:09.545Z,11.65
2022-08-03T16:03:17.201Z,12.38
2022-08-03T16:08:24.158Z,11.45
2022-08-03T16:14:11.870Z,16.13
2022-08-03T16:18:57.256Z,13.57
2022-08-03T16:24:05.761Z,13.50
2022-08-03T16:29:23.149Z,14.80
2022-08-03T16:34:30.063Z,16.10
2022-08-03T16:39:36.547Z,17.33
2022-08-03T16:44:42.889Z,12.88
2022-08-03T16:49:54.352Z,21.05
2022-08-03T16:55:05.737Z,15.18
2022-08-03T17:00:34.058Z,15.65
2022-08-03T17:05:47.194Z,15.60
2022-08-03T17:10:54.485Z,15.05
2022-08-03T17:16:03.639Z,17.55
2022-08-03T17:21:10.415Z,17.73
2022-08-03T17:26:22.227Z,15.73
2022-08-03T17:31:31.668Z,20.85
2022-08-03T17:37:03.329Z,14.25
2022-08-03T17:42:38.847Z,19.77
2022-08-03T17:47:41.987Z,18.02
2022-08-03T17:52:51.280Z,15.55
2022-08-03T17:58:06.001Z,20.45
2022-08-03T18:03:20.661Z,13.63
2022-08-03T18:08:29.379Z,13.82
2022-08-03T18:13:53.518Z,11.15
2022-08-03T18:19:09.645Z,10.02
2022-08-03T18:24:23.130Z,13.57
2022-08-03T18:29:32.596Z,14.93
2022-08-03T18:34:41.085Z,10.95
2022-08-03T18:40:00.699Z,11.52
2022-08-03T18:45:54.926Z,13.23
2022-08-03T18:50:37.126Z,9.90
2022-08-03T18:56:04.081Z,11.50
2022-08-03T19:01:59.981Z,10.47
2022-08-03T19:06:47.010Z,9.32
2022-08-03T19:12:12.503Z,9.48
2022-08-03T19:17:29.250Z,10.07
2022-08-03T19:22:36.397Z,11.95
2022-08-03T19:27:44.007Z,12.65
2022-08-03T19:32:52.856Z,14.30
2022-08-03T19:37:59.677Z,10.05
2022-08-03T19:43:12.131Z,10.75
2022-08-03T19:53:36.521Z,10.80
2022-08-03T19:58:53.228Z,15.07
2022-08-03T20:03:59.583Z,13.75
2022-08-03T20:09:06.088Z,10.38
2022-08-03T20:14:20.762Z,13.23
2022-08-03T20:19:35.081Z,10.73
2022-08-03T20:24:48.161Z,9.43
2022-08-03T20:30:06.784Z,12.05
2022-08-03T20:35:13.915Z,14.05
2022-08-03T20:40:19.888Z,11.75
2022-08-03T20:46:01.044Z,11.27
2022-08-03T20:50:52.032Z,10.90
2022-08-03T20:56:02.218Z,13.48
2022-08-03T21:01:08.562Z,15.45
2022-08-03T21:06:27.804Z,11.15
2022-08-03T21:11:45.417Z,14.93
2022-08-03T21:16:54.832Z,19.20
2022-08-03T21:22:01.984Z,18.65
2022-08-03T21:27:08.046Z,16.70
2022-08-03T21:32:19.155Z,19.05
2022-08-03T21:37:39.655Z,20.00
2022-08-03T21:42:47.267Z,16.50
2022-08-03T21:47:53.180Z,22.33
2022-08-03T21:53:00.533Z,25.70
2022-08-03T21:58:08.143Z,25.95
2022-08-03T22:03:17.489Z,24.30
2022-08-03T22:08:24.838Z,21.42
2022-08-03T22:14:08.849Z,22.92
2022-08-03T22:19:23.817Z,25.42
2022-08-03T22:24:34.356Z,25.25
2022-08-03T22:29:43.945Z,24.83
2022-08-03T22:34:51.550Z,26.02
2022-08-03T22:39:58.905Z,22.83
2022-08-03T22:45:07.346Z,22.15
2022-08-03T22:50:31.401Z,24.17
2022-08-03T22:55:40.670Z,23.80
2022-08-03T23:00:56.539Z,31.08
2022-08-03T23:06:04.304Z,26.77
2022-08-03T23:11:10.944Z,23.13
2022-08-03T23:16:29.058Z,26.25
2022-08-03T23:22:00.031Z,26.00
2022-08-03T23:27:06.961Z,24.02
2022-08-03T23:32:15.071Z,21.45
2022-08-03T23:37:22.526Z,31.17
2022-08-03T23:42:29.536Z,23.35
2022-08-03T23:47:47.305Z,27.27
2022-08-03T23:53:14.354Z,23.35
2022-08-03T23:58:26.278Z,23.58
